sensor_id;sensor_type;location;lat;lon;timestamp;P1;durP1;ratioP1;P2;durP2;ratioP2
12052;SDS011;6087;48.982;12.064;2023-07-29T00:00:46;3.90;;;3.13;;
12052;SDS011;6087;48.982;12.064;2023-07-29T00:03:13;4.20;;;3.80;;
12052;SDS011;6087;48.982;12.064;2023-07-29T00:05:42;3.33;;;2.70;;
12052;SDS011;6087;48.982;12.064;2023-07-29T00:08:09;3.15;;;2.85;;
12052;SDS011;6087;48.982;12.064;2023-07-29T00:10:36;3.35;;;2.85;;
12052;SDS011;6087;48.982;12.064;2023-07-29T00:13:03;3.00;;;2.67;;
12052;SDS011;6087;48.982;12.064;2023-07-29T00:15:31;3.33;;;3.03;;
12052;SDS011;6087;48.982;12.064;2023-07-29T00:17:58;2.83;;;2.63;;
12052;SDS011;6087;48.982;12.064;2023-07-29T00:20:25;3.25;;;2.95;;
12052;SDS011;6087;48.982;12.064;2023-07-29T00:22:54;3.35;;;3.05;;
12052;SDS011;6087;48.982;12.064;2023-07-29T00:25:23;3.63;;;3.33;;
12052;SDS011;6087;48.982;12.064;2023-07-29T00:27:50;3.95;;;3.50;;
12052;SDS011;6087;48.982;12.064;2023-07-29T00:30:17;3.80;;;3.30;;
12052;SDS011;6087;48.982;12.064;2023-07-29T00:32:44;4.15;;;3.22;;
12052;SDS011;6087;48.982;12.064;2023-07-29T00:35:11;4.93;;;3.38;;
12052;SDS011;6087;48.982;12.064;2023-07-29T00:37:38;4.22;;;3.40;;
12052;SDS011;6087;48.982;12.064;2023-07-29T00:40:09;3.58;;;3.03;;
12052;SDS011;6087;48.982;12.064;2023-07-29T00:42:42;3.40;;;3.10;;
12052;SDS011;6087;48.982;12.064;2023-07-29T00:45:09;4.75;;;3.67;;
12052;SDS011;6087;48.982;12.064;2023-07-29T00:47:36;4.03;;;3.13;;
12052;SDS011;6087;48.982;12.064;2023-07-29T00:50:05;3.92;;;3.53;;
12052;SDS011;6087;48.982;12.064;2023-07-29T00:52:32;3.58;;;3.28;;
12052;SDS011;6087;48.982;12.064;2023-07-29T00:55:05;3.92;;;3.53;;
12052;SDS011;6087;48.982;12.064;2023-07-29T00:57:34;4.50;;;4.10;;
12052;SDS011;6087;48.982;12.064;2023-07-29T01:00:02;5.07;;;4.25;;
12052;SDS011;6087;48.982;12.064;2023-07-29T01:02:30;6.28;;;4.78;;
12052;SDS011;6087;48.982;12.064;2023-07-29T01:04:58;4.97;;;4.57;;
12052;SDS011;6087;48.982;12.064;2023-07-29T01:07:27;5.60;;;5.07;;
12052;SDS011;6087;48.982;12.064;2023-07-29T01:10:02;4.97;;;4.50;;
12052;SDS011;6087;48.982;12.064;2023-07-29T01:12:39;5.93;;;5.43;;
12052;SDS011;6087;48.982;12.064;2023-07-29T01:15:21;6.53;;;5.97;;
12052;SDS011;6087;48.982;12.064;2023-07-29T01:17:54;7.82;;;5.82;;
12052;SDS011;6087;48.982;12.064;2023-07-29T01:20:25;6.63;;;5.82;;
12052;SDS011;6087;48.982;12.064;2023-07-29T01:22:54;6.68;;;5.93;;
12052;SDS011;6087;48.982;12.064;2023-07-29T01:25:22;7.88;;;6.53;;
12052;SDS011;6087;48.982;12.064;2023-07-29T01:27:50;6.90;;;6.30;;
12052;SDS011;6087;48.982;12.064;2023-07-29T01:30:20;8.30;;;6.90;;
12052;SDS011;6087;48.982;12.064;2023-07-29T01:32:53;8.38;;;7.53;;
12052;SDS011;6087;48.982;12.064;2023-07-29T01:35:26;8.10;;;7.40;;
12052;SDS011;6087;48.982;12.064;2023-07-29T01:38:11;7.82;;;7.13;;
12052;SDS011;6087;48.982;12.064;2023-07-29T01:40:45;9.82;;;8.82;;
12052;SDS011;6087;48.982;12.064;2023-07-29T01:43:15;10.25;;;8.55;;
12052;SDS011;6087;48.982;12.064;2023-07-29T01:45:46;9.73;;;8.52;;
12052;SDS011;6087;48.982;12.064;2023-07-29T01:48:20;9.65;;;8.75;;
12052;SDS011;6087;48.982;12.064;2023-07-29T01:50:49;9.38;;;8.57;;
12052;SDS011;6087;48.982;12.064;2023-07-29T01:53:16;10.15;;;9.07;;
12052;SDS011;6087;48.982;12.064;2023-07-29T01:55:48;9.68;;;8.75;;
12052;SDS011;6087;48.982;12.064;2023-07-29T01:58:15;11.20;;;9.10;;
12052;SDS011;6087;48.982;12.064;2023-07-29T02:00:42;11.13;;;10.05;;
12052;SDS011;6087;48.982;12.064;2023-07-29T02:03:09;10.98;;;9.55;;
12052;SDS011;6087;48.982;12.064;2023-07-29T02:05:36;11.57;;;10.45;;
12052;SDS011;6087;48.982;12.064;2023-07-29T02:08:03;10.75;;;9.65;;
12052;SDS011;6087;48.982;12.064;2023-07-29T02:10:31;11.75;;;10.55;;
12052;SDS011;6087;48.982;12.064;2023-07-29T02:12:59;12.05;;;10.77;;
12052;SDS011;6087;48.982;12.064;2023-07-29T02:15:26;11.23;;;10.00;;
12052;SDS011;6087;48.982;12.064;2023-07-29T02:17:54;11.00;;;9.88;;
12052;SDS011;6087;48.982;12.064;2023-07-29T02:20:21;10.57;;;9.32;;
12052;SDS011;6087;48.982;12.064;2023-07-29T02:22:48;11.45;;;10.30;;
12052;SDS011;6087;48.982;12.064;2023-07-29T02:25:15;15.57;;;11.35;;
12052;SDS011;6087;48.982;12.064;2023-07-29T02:27:42;11.18;;;10.07;;
12052;SDS011;6087;48.982;12.064;2023-07-29T02:30:11;11.23;;;9.98;;
12052;SDS011;6087;48.982;12.064;2023-07-29T02:32:38;14.25;;;11.50;;
12052;SDS011;6087;48.982;12.064;2023-07-29T02:35:05;12.38;;;10.60;;
12052;SDS011;6087;48.982;12.064;2023-07-29T02:37:32;11.82;;;10.50;;
12052;SDS011;6087;48.982;12.064;2023-07-29T02:40:00;11.48;;;10.27;;
12052;SDS011;6087;48.982;12.064;2023-07-29T02:42:28;12.55;;;10.70;;
12052;SDS011;6087;48.982;12.064;2023-07-29T02:44:55;11.13;;;9.63;;
12052;SDS011;6087;48.982;12.064;2023-07-29T02:47:24;11.68;;;9.82;;
12052;SDS011;6087;48.982;12.064;2023-07-29T02:49:51;10.52;;;9.48;;
12052;SDS011;6087;48.982;12.064;2023-07-29T02:52:18;11.07;;;9.98;;
12052;SDS011;6087;48.982;12.064;2023-07-29T02:54:45;11.43;;;10.27;;
12052;SDS011;6087;48.982;12.064;2023-07-29T02:57:15;9.77;;;8.80;;
12052;SDS011;6087;48.982;12.064;2023-07-29T02:59:42;11.15;;;9.50;;
12052;SDS011;6087;48.982;12.064;2023-07-29T03:02:10;9.88;;;8.88;;
12052;SDS011;6087;48.982;12.064;2023-07-29T03:04:39;10.15;;;9.15;;
12052;SDS011;6087;48.982;12.064;2023-07-29T03:07:06;10.45;;;9.23;;
12052;SDS011;6087;48.982;12.064;2023-07-29T03:09:33;10.07;;;9.07;;
12052;SDS011;6087;48.982;12.064;2023-07-29T03:12:00;10.88;;;9.48;;
12052;SDS011;6087;48.982;12.064;2023-07-29T03:14:27;8.40;;;7.60;;
12052;SDS011;6087;48.982;12.064;2023-07-29T03:16:54;10.52;;;9.43;;
12052;SDS011;6087;48.982;12.064;2023-07-29T03:19:21;10.63;;;9.25;;
12052;SDS011;6087;48.982;12.064;2023-07-29T03:21:50;9.77;;;8.73;;
12052;SDS011;6087;48.982;12.064;2023-07-29T03:24:17;9.23;;;8.23;;
12052;SDS011;6087;48.982;12.064;2023-07-29T03:26:44;9.40;;;8.10;;
12052;SDS011;6087;48.982;12.064;2023-07-29T03:29:11;9.50;;;8.43;;
12052;SDS011;6087;48.982;12.064;2023-07-29T03:31:38;8.68;;;7.82;;
12052;SDS011;6087;48.982;12.064;2023-07-29T03:34:05;8.95;;;7.85;;
12052;SDS011;6087;48.982;12.064;2023-07-29T03:36:32;9.52;;;8.63;;
12052;SDS011;6087;48.982;12.064;2023-07-29T03:39:01;10.38;;;9.32;;
12052;SDS011;6087;48.982;12.064;2023-07-29T03:41:28;10.98;;;9.65;;
12052;SDS011;6087;48.982;12.064;2023-07-29T03:43:56;20.05;;;9.88;;
12052;SDS011;6087;48.982;12.064;2023-07-29T03:46:23;14.68;;;10.75;;
12052;SDS011;6087;48.982;12.064;2023-07-29T03:48:50;13.27;;;11.90;;
12052;SDS011;6087;48.982;12.064;2023-07-29T03:51:17;13.10;;;11.77;;
12052;SDS011;6087;48.982;12.064;2023-07-29T03:53:45;13.65;;;11.85;;
12052;SDS011;6087;48.982;12.064;2023-07-29T03:56:13;13.23;;;11.90;;
12052;SDS011;6087;48.982;12.064;2023-07-29T03:58:40;12.00;;;10.82;;
12052;SDS011;6087;48.982;12.064;2023-07-29T04:01:07;12.32;;;11.02;;
12052;SDS011;6087;48.982;12.064;2023-07-29T04:03:34;12.65;;;11.32;;
12052;SDS011;6087;48.982;12.064;2023-07-29T04:06:01;12.18;;;11.00;;
12052;SDS011;6087;48.982;12.064;2023-07-29T04:08:29;11.98;;;10.80;;
12052;SDS011;6087;48.982;12.064;2023-07-29T04:10:56;12.35;;;10.32;;
12052;SDS011;6087;48.982;12.064;2023-07-29T04:13:25;12.45;;;11.00;;
12052;SDS011;6087;48.982;12.064;2023-07-29T04:15:52;11.88;;;10.63;;
12052;SDS011;6087;48.982;12.064;2023-07-29T04:18:19;11.68;;;10.27;;
12052;SDS011;6087;48.982;12.064;2023-07-29T04:20:46;11.30;;;10.10;;
12052;SDS011;6087;48.982;12.064;2023-07-29T04:23:13;11.63;;;10.45;;
12052;SDS011;6087;48.982;12.064;2023-07-29T04:25:40;12.15;;;10.95;;
12052;SDS011;6087;48.982;12.064;2023-07-29T04:28:08;13.68;;;11.00;;
12052;SDS011;6087;48.982;12.064;2023-07-29T04:30:36;13.95;;;10.63;;
12052;SDS011;6087;48.982;12.064;2023-07-29T04:33:03;13.00;;;11.13;;
12052;SDS011;6087;48.982;12.064;2023-07-29T04:35:30;16.02;;;11.82;;
12052;SDS011;6087;48.982;12.064;2023-07-29T04:37:58;13.10;;;11.80;;
12052;SDS011;6087;48.982;12.064;2023-07-29T04:40:25;13.50;;;12.10;;
12052;SDS011;6087;48.982;12.064;2023-07-29T04:42:55;13.05;;;11.57;;
12052;SDS011;6087;48.982;12.064;2023-07-29T04:45:22;14.57;;;12.05;;
12052;SDS011;6087;48.982;12.064;2023-07-29T04:47:51;13.95;;;12.48;;
12052;SDS011;6087;48.982;12.064;2023-07-29T04:50:18;13.65;;;11.70;;
12052;SDS011;6087;48.982;12.064;2023-07-29T04:52:45;11.98;;;10.70;;
12052;SDS011;6087;48.982;12.064;2023-07-29T04:55:12;12.45;;;11.10;;
12052;SDS011;6087;48.982;12.064;2023-07-29T04:57:39;10.13;;;9.13;;
12052;SDS011;6087;48.982;12.064;2023-07-29T05:00:06;9.73;;;8.73;;
12052;SDS011;6087;48.982;12.064;2023-07-29T05:02:35;9.88;;;8.93;;
12052;SDS011;6087;48.982;12.064;2023-07-29T05:05:03;8.45;;;7.47;;
12052;SDS011;6087;48.982;12.064;2023-07-29T05:07:31;8.65;;;7.47;;
12052;SDS011;6087;48.982;12.064;2023-07-29T05:09:58;8.65;;;7.20;;
12052;SDS011;6087;48.982;12.064;2023-07-29T05:12:25;6.47;;;5.88;;
12052;SDS011;6087;48.982;12.064;2023-07-29T05:14:54;5.70;;;5.15;;
12052;SDS011;6087;48.982;12.064;2023-07-29T05:17:21;5.70;;;4.72;;
12052;SDS011;6087;48.982;12.064;2023-07-29T05:19:48;5.45;;;4.95;;
12052;SDS011;6087;48.982;12.064;2023-07-29T05:22:17;4.85;;;4.35;;
12052;SDS011;6087;48.982;12.064;2023-07-29T05:24:44;5.20;;;4.60;;
12052;SDS011;6087;48.982;12.064;2023-07-29T05:27:11;6.35;;;4.93;;
12052;SDS011;6087;48.982;12.064;2023-07-29T05:29:38;4.97;;;4.35;;
12052;SDS011;6087;48.982;12.064;2023-07-29T05:32:06;5.93;;;4.03;;
12052;SDS011;6087;48.982;12.064;2023-07-29T05:34:33;6.35;;;3.72;;
12052;SDS011;6087;48.982;12.064;2023-07-29T05:37:00;4.55;;;3.90;;
12052;SDS011;6087;48.982;12.064;2023-07-29T05:39:29;3.53;;;3.22;;
12052;SDS011;6087;48.982;12.064;2023-07-29T05:42:00;4.55;;;3.97;;
12052;SDS011;6087;48.982;12.064;2023-07-29T05:44:28;4.57;;;4.18;;
12052;SDS011;6087;48.982;12.064;2023-07-29T05:46:56;5.75;;;3.97;;
12052;SDS011;6087;48.982;12.064;2023-07-29T05:49:28;4.75;;;4.35;;
12052;SDS011;6087;48.982;12.064;2023-07-29T05:51:58;4.43;;;3.85;;
12052;SDS011;6087;48.982;12.064;2023-07-29T05:54:33;4.45;;;4.05;;
12052;SDS011;6087;48.982;12.064;2023-07-29T05:57:00;4.60;;;3.78;;
12052;SDS011;6087;48.982;12.064;2023-07-29T05:59:27;4.15;;;3.75;;
12052;SDS011;6087;48.982;12.064;2023-07-29T06:01:54;3.75;;;3.45;;
12052;SDS011;6087;48.982;12.064;2023-07-29T06:04:21;5.93;;;4.40;;
12052;SDS011;6087;48.982;12.064;2023-07-29T06:06:49;4.00;;;3.58;;
12052;SDS011;6087;48.982;12.064;2023-07-29T06:09:16;4.10;;;3.70;;
12052;SDS011;6087;48.982;12.064;2023-07-29T06:11:44;3.78;;;3.47;;
12052;SDS011;6087;48.982;12.064;2023-07-29T06:14:11;3.95;;;3.55;;
12052;SDS011;6087;48.982;12.064;2023-07-29T06:16:38;4.00;;;3.60;;
12052;SDS011;6087;48.982;12.064;2023-07-29T06:19:05;3.60;;;3.30;;
12052;SDS011;6087;48.982;12.064;2023-07-29T06:21:33;3.75;;;3.10;;
12052;SDS011;6087;48.982;12.064;2023-07-29T06:24:01;3.10;;;2.80;;
12052;SDS011;6087;48.982;12.064;2023-07-29T06:26:28;3.40;;;3.10;;
12052;SDS011;6087;48.982;12.064;2023-07-29T06:28:56;4.15;;;2.78;;
12052;SDS011;6087;48.982;12.064;2023-07-29T06:31:24;3.92;;;2.92;;
12052;SDS011;6087;48.982;12.064;2023-07-29T06:33:51;3.90;;;3.00;;
12052;SDS011;6087;48.982;12.064;2023-07-29T06:36:19;5.22;;;3.00;;
12052;SDS011;6087;48.982;12.064;2023-07-29T06:38:54;2.90;;;2.70;;
12052;SDS011;6087;48.982;12.064;2023-07-29T06:41:27;3.28;;;2.78;;
12052;SDS011;6087;48.982;12.064;2023-07-29T06:43:54;3.17;;;2.85;;
12052;SDS011;6087;48.982;12.064;2023-07-29T06:46:23;3.75;;;3.22;;
12052;SDS011;6087;48.982;12.064;2023-07-29T06:48:50;4.78;;;2.90;;
12052;SDS011;6087;48.982;12.064;2023-07-29T06:51:17;3.05;;;2.75;;
12052;SDS011;6087;48.982;12.064;2023-07-29T06:53:45;3.38;;;2.88;;
12052;SDS011;6087;48.982;12.064;2023-07-29T06:56:12;2.92;;;2.45;;
12052;SDS011;6087;48.982;12.064;2023-07-29T06:58:39;3.25;;;2.60;;
12052;SDS011;6087;48.982;12.064;2023-07-29T07:01:08;3.72;;;2.70;;
12052;SDS011;6087;48.982;12.064;2023-07-29T07:03:35;2.50;;;2.30;;
12052;SDS011;6087;48.982;12.064;2023-07-29T07:06:02;4.53;;;2.88;;
12052;SDS011;6087;48.982;12.064;2023-07-29T07:08:30;2.63;;;2.42;;
12052;SDS011;6087;48.982;12.064;2023-07-29T07:10:57;3.53;;;3.22;;
12052;SDS011;6087;48.982;12.064;2023-07-29T07:13:25;3.13;;;2.58;;
12052;SDS011;6087;48.982;12.064;2023-07-29T07:15:54;3.35;;;2.85;;
12052;SDS011;6087;48.982;12.064;2023-07-29T07:18:24;3.88;;;2.53;;
12052;SDS011;6087;48.982;12.064;2023-07-29T07:20:51;4.00;;;2.90;;
12052;SDS011;6087;48.982;12.064;2023-07-29T07:23:19;3.33;;;2.65;;
12052;SDS011;6087;48.982;12.064;2023-07-29T07:25:46;4.05;;;3.05;;
12052;SDS011;6087;48.982;12.064;2023-07-29T07:28:13;2.63;;;2.42;;
12052;SDS011;6087;48.982;12.064;2023-07-29T07:30:40;4.13;;;2.38;;
12052;SDS011;6087;48.982;12.064;2023-07-29T07:33:08;3.22;;;2.33;;
12052;SDS011;6087;48.982;12.064;2023-07-29T07:35:39;4.85;;;2.92;;
12052;SDS011;6087;48.982;12.064;2023-07-29T07:38:07;2.63;;;2.40;;
12052;SDS011;6087;48.982;12.064;2023-07-29T07:40:35;3.30;;;2.50;;
12052;SDS011;6087;48.982;12.064;2023-07-29T07:43:02;4.43;;;2.67;;
12052;SDS011;6087;48.982;12.064;2023-07-29T07:45:31;3.92;;;3.05;;
12052;SDS011;6087;48.982;12.064;2023-07-29T07:47:58;2.83;;;2.63;;
12052;SDS011;6087;48.982;12.064;2023-07-29T07:50:28;3.95;;;2.50;;
12052;SDS011;6087;48.982;12.064;2023-07-29T07:52:57;3.35;;;2.70;;
12052;SDS011;6087;48.982;12.064;2023-07-29T07:55:25;2.85;;;2.60;;
12052;SDS011;6087;48.982;12.064;2023-07-29T07:57:52;3.03;;;2.78;;
12052;SDS011;6087;48.982;12.064;2023-07-29T08:00:20;5.00;;;2.85;;
12052;SDS011;6087;48.982;12.064;2023-07-29T08:02:47;3.03;;;2.60;;
12052;SDS011;6087;48.982;12.064;2023-07-29T08:05:14;2.45;;;2.25;;
12052;SDS011;6087;48.982;12.064;2023-07-29T08:07:43;3.08;;;2.60;;
12052;SDS011;6087;48.982;12.064;2023-07-29T08:10:15;4.10;;;2.90;;
12052;SDS011;6087;48.982;12.064;2023-07-29T08:12:42;3.65;;;2.88;;
12052;SDS011;6087;48.982;12.064;2023-07-29T08:15:09;3.50;;;3.10;;
12052;SDS011;6087;48.982;12.064;2023-07-29T08:17:36;4.78;;;3.13;;
12052;SDS011;6087;48.982;12.064;2023-07-29T08:20:06;4.45;;;3.00;;
12052;SDS011;6087;48.982;12.064;2023-07-29T08:22:34;5.22;;;3.78;;
12052;SDS011;6087;48.982;12.064;2023-07-29T08:25:04;7.35;;;4.13;;
12052;SDS011;6087;48.982;12.064;2023-07-29T08:27:34;5.88;;;3.60;;
12052;SDS011;6087;48.982;12.064;2023-07-29T08:30:01;3.42;;;2.97;;
12052;SDS011;6087;48.982;12.064;2023-07-29T08:32:28;4.95;;;2.85;;
12052;SDS011;6087;48.982;12.064;2023-07-29T08:34:55;2.88;;;2.25;;
12052;SDS011;6087;48.982;12.064;2023-07-29T08:37:22;2.88;;;2.40;;
12052;SDS011;6087;48.982;12.064;2023-07-29T08:39:49;2.90;;;2.28;;
12052;SDS011;6087;48.982;12.064;2023-07-29T08:42:19;3.45;;;2.40;;
12052;SDS011;6087;48.982;12.064;2023-07-29T08:44:49;6.38;;;2.45;;
12052;SDS011;6087;48.982;12.064;2023-07-29T08:47:17;3.55;;;2.42;;
12052;SDS011;6087;48.982;12.064;2023-07-29T08:49:45;2.30;;;2.10;;
12052;SDS011;6087;48.982;12.064;2023-07-29T08:52:13;4.28;;;2.55;;
12052;SDS011;6087;48.982;12.064;2023-07-29T08:54:41;2.40;;;2.20;;
12052;SDS011;6087;48.982;12.064;2023-07-29T08:57:09;2.55;;;2.35;;
12052;SDS011;6087;48.982;12.064;2023-07-29T08:59:36;2.83;;;2.40;;
12052;SDS011;6087;48.982;12.064;2023-07-29T09:02:06;3.00;;;2.40;;
12052;SDS011;6087;48.982;12.064;2023-07-29T09:04:33;3.55;;;3.03;;
12052;SDS011;6087;48.982;12.064;2023-07-29T09:07:00;5.22;;;3.63;;
12052;SDS011;6087;48.982;12.064;2023-07-29T09:09:29;6.45;;;3.10;;
12052;SDS011;6087;48.982;12.064;2023-07-29T09:11:56;4.35;;;3.40;;
12052;SDS011;6087;48.982;12.064;2023-07-29T09:14:23;3.83;;;2.90;;
12052;SDS011;6087;48.982;12.064;2023-07-29T09:16:51;3.45;;;2.60;;
12052;SDS011;6087;48.982;12.064;2023-07-29T09:19:20;4.90;;;3.05;;
12052;SDS011;6087;48.982;12.064;2023-07-29T09:21:48;2.47;;;2.28;;
12052;SDS011;6087;48.982;12.064;2023-07-29T09:24:16;2.22;;;2.03;;
12052;SDS011;6087;48.982;12.064;2023-07-29T09:26:48;2.15;;;2.05;;
12052;SDS011;6087;48.982;12.064;2023-07-29T09:29:21;2.72;;;2.30;;
12052;SDS011;6087;48.982;12.064;2023-07-29T09:31:49;6.20;;;2.38;;
12052;SDS011;6087;48.982;12.064;2023-07-29T09:34:16;2.45;;;1.92;;
12052;SDS011;6087;48.982;12.064;2023-07-29T09:36:49;2.63;;;2.00;;
12052;SDS011;6087;48.982;12.064;2023-07-29T09:39:17;3.67;;;1.95;;
12052;SDS011;6087;48.982;12.064;2023-07-29T09:41:47;3.33;;;2.03;;
12052;SDS011;6087;48.982;12.064;2023-07-29T09:44:15;2.05;;;1.85;;
12052;SDS011;6087;48.982;12.064;2023-07-29T09:46:45;2.97;;;2.42;;
12052;SDS011;6087;48.982;12.064;2023-07-29T09:49:13;4.10;;;2.72;;
12052;SDS011;6087;48.982;12.064;2023-07-29T09:51:42;2.10;;;1.95;;
12052;SDS011;6087;48.982;12.064;2023-07-29T09:54:10;2.13;;;2.03;;
12052;SDS011;6087;48.982;12.064;2023-07-29T09:56:41;2.75;;;2.55;;
12052;SDS011;6087;48.982;12.064;2023-07-29T09:59:09;5.18;;;2.30;;
12052;SDS011;6087;48.982;12.064;2023-07-29T10:01:39;2.45;;;2.15;;
12052;SDS011;6087;48.982;12.064;2023-07-29T10:04:07;3.72;;;2.40;;
12052;SDS011;6087;48.982;12.064;2023-07-29T10:06:37;2.83;;;2.63;;
12052;SDS011;6087;48.982;12.064;2023-07-29T10:09:06;3.67;;;2.75;;
12052;SDS011;6087;48.982;12.064;2023-07-29T10:11:35;4.53;;;2.70;;
12052;SDS011;6087;48.982;12.064;2023-07-29T10:14:03;2.90;;;2.53;;
12052;SDS011;6087;48.982;12.064;2023-07-29T10:16:34;4.95;;;3.30;;
12052;SDS011;6087;48.982;12.064;2023-07-29T10:19:02;3.88;;;2.70;;
12052;SDS011;6087;48.982;12.064;2023-07-29T10:21:33;3.20;;;2.58;;
12052;SDS011;6087;48.982;12.064;2023-07-29T10:24:03;2.42;;;2.22;;
12052;SDS011;6087;48.982;12.064;2023-07-29T10:26:40;2.53;;;2.30;;
12052;SDS011;6087;48.982;12.064;2023-07-29T10:29:12;3.88;;;2.70;;
12052;SDS011;6087;48.982;12.064;2023-07-29T10:31:42;2.83;;;2.30;;
12052;SDS011;6087;48.982;12.064;2023-07-29T10:34:11;2.70;;;2.50;;
12052;SDS011;6087;48.982;12.064;2023-07-29T10:36:39;3.42;;;2.58;;
12052;SDS011;6087;48.982;12.064;2023-07-29T10:39:09;2.72;;;2.53;;
12052;SDS011;6087;48.982;12.064;2023-07-29T10:44:45;3.20;;;2.92;;
12052;SDS011;6087;48.982;12.064;2023-07-29T10:47:16;3.83;;;3.20;;
12052;SDS011;6087;48.982;12.064;2023-07-29T10:49:45;4.63;;;4.05;;
12052;SDS011;6087;48.982;12.064;2023-07-29T10:52:14;5.95;;;3.35;;
12052;SDS011;6087;48.982;12.064;2023-07-29T10:54:44;3.33;;;3.03;;
12052;SDS011;6087;48.982;12.064;2023-07-29T10:57:15;3.47;;;2.90;;
12052;SDS011;6087;48.982;12.064;2023-07-29T10:59:52;3.38;;;2.97;;
12052;SDS011;6087;48.982;12.064;2023-07-29T11:02:21;2.95;;;2.75;;
12052;SDS011;6087;48.982;12.064;2023-07-29T11:04:56;2.78;;;2.58;;
12052;SDS011;6087;48.982;12.064;2023-07-29T11:07:24;3.85;;;2.72;;
12052;SDS011;6087;48.982;12.064;2023-07-29T11:09:57;3.25;;;2.70;;
12052;SDS011;6087;48.982;12.064;2023-07-29T11:12:35;3.08;;;2.78;;
12052;SDS011;6087;48.982;12.064;2023-07-29T11:15:17;2.97;;;2.65;;
12052;SDS011;6087;48.982;12.064;2023-07-29T11:17:46;4.20;;;3.13;;
12052;SDS011;6087;48.982;12.064;2023-07-29T11:20:15;4.50;;;2.90;;
12052;SDS011;6087;48.982;12.064;2023-07-29T11:22:43;3.20;;;2.72;;
12052;SDS011;6087;48.982;12.064;2023-07-29T11:25:11;3.92;;;3.53;;
12052;SDS011;6087;48.982;12.064;2023-07-29T11:27:40;5.70;;;3.28;;
12052;SDS011;6087;48.982;12.064;2023-07-29T11:30:08;3.65;;;2.45;;
12052;SDS011;6087;48.982;12.064;2023-07-29T11:32:36;5.03;;;2.40;;
12052;SDS011;6087;48.982;12.064;2023-07-29T11:35:05;2.40;;;2.17;;
12052;SDS011;6087;48.982;12.064;2023-07-29T11:37:35;3.85;;;2.20;;
12052;SDS011;6087;48.982;12.064;2023-07-29T11:40:03;1.77;;;1.67;;
12052;SDS011;6087;48.982;12.064;2023-07-29T11:42:33;1.77;;;1.67;;
12052;SDS011;6087;48.982;12.064;2023-07-29T11:45:01;2.53;;;1.90;;
12052;SDS011;6087;48.982;12.064;2023-07-29T11:47:29;2.13;;;2.00;;
12052;SDS011;6087;48.982;12.064;2023-07-29T11:49:58;1.92;;;1.73;;
12052;SDS011;6087;48.982;12.064;2023-07-29T11:52:25;1.83;;;1.73;;
12052;SDS011;6087;48.982;12.064;2023-07-29T11:54:54;1.70;;;1.60;;
12052;SDS011;6087;48.982;12.064;2023-07-29T11:57:21;1.48;;;1.38;;
12052;SDS011;6087;48.982;12.064;2023-07-29T11:59:51;1.90;;;1.70;;
12052;SDS011;6087;48.982;12.064;2023-07-29T12:02:20;2.38;;;2.17;;
12052;SDS011;6087;48.982;12.064;2023-07-29T12:04:47;1.70;;;1.60;;
12052;SDS011;6087;48.982;12.064;2023-07-29T12:07:16;2.15;;;1.95;;
12052;SDS011;6087;48.982;12.064;2023-07-29T12:09:43;1.75;;;1.65;;
12052;SDS011;6087;48.982;12.064;2023-07-29T12:12:12;1.63;;;1.52;;
12052;SDS011;6087;48.982;12.064;2023-07-29T12:14:42;1.90;;;1.80;;
12052;SDS011;6087;48.982;12.064;2023-07-29T12:17:12;1.65;;;1.50;;
12052;SDS011;6087;48.982;12.064;2023-07-29T12:19:39;2.72;;;1.58;;
12052;SDS011;6087;48.982;12.064;2023-07-29T12:22:08;1.40;;;1.00;;
12052;SDS011;6087;48.982;12.064;2023-07-29T12:24:37;1.45;;;1.23;;
12052;SDS011;6087;48.982;12.064;2023-07-29T12:27:05;4.63;;;1.80;;
12052;SDS011;6087;48.982;12.064;2023-07-29T12:29:39;1.75;;;1.40;;
12052;SDS011;6087;48.982;12.064;2023-07-29T12:32:08;1.38;;;1.27;;
12052;SDS011;6087;48.982;12.064;2023-07-29T12:34:37;1.05;;;1.05;;
12052;SDS011;6087;48.982;12.064;2023-07-29T12:37:05;1.83;;;1.70;;
12052;SDS011;6087;48.982;12.064;2023-07-29T12:39:34;1.45;;;1.35;;
12052;SDS011;6087;48.982;12.064;2023-07-29T12:42:02;1.48;;;1.38;;
12052;SDS011;6087;48.982;12.064;2023-07-29T12:44:30;1.40;;;1.30;;
12052;SDS011;6087;48.982;12.064;2023-07-29T12:46:59;1.42;;;1.33;;
12052;SDS011;6087;48.982;12.064;2023-07-29T12:49:27;2.45;;;1.58;;
12052;SDS011;6087;48.982;12.064;2023-07-29T12:51:56;1.75;;;1.48;;
12052;SDS011;6087;48.982;12.064;2023-07-29T12:54:23;1.20;;;1.10;;
12052;SDS011;6087;48.982;12.064;2023-07-29T12:56:50;1.75;;;1.30;;
12052;SDS011;6087;48.982;12.064;2023-07-29T12:59:17;1.63;;;1.30;;
12052;SDS011;6087;48.982;12.064;2023-07-29T13:01:45;1.42;;;1.33;;
12052;SDS011;6087;48.982;12.064;2023-07-29T13:04:12;1.35;;;1.25;;
12052;SDS011;6087;48.982;12.064;2023-07-29T13:06:39;1.30;;;1.20;;
12052;SDS011;6087;48.982;12.064;2023-07-29T13:09:07;1.52;;;1.42;;
12052;SDS011;6087;48.982;12.064;2023-07-29T13:11:34;1.40;;;1.30;;
12052;SDS011;6087;48.982;12.064;2023-07-29T13:14:01;1.50;;;1.40;;
12052;SDS011;6087;48.982;12.064;2023-07-29T13:16:28;1.58;;;1.48;;
12052;SDS011;6087;48.982;12.064;2023-07-29T13:18:55;2.25;;;1.27;;
12052;SDS011;6087;48.982;12.064;2023-07-29T13:21:23;2.80;;;1.40;;
12052;SDS011;6087;48.982;12.064;2023-07-29T13:23:52;1.63;;;1.52;;
12052;SDS011;6087;48.982;12.064;2023-07-29T13:26:20;1.35;;;1.25;;
12052;SDS011;6087;48.982;12.064;2023-07-29T13:28:47;1.55;;;1.45;;
12052;SDS011;6087;48.982;12.064;2023-07-29T13:31:15;1.45;;;1.35;;
12052;SDS011;6087;48.982;12.064;2023-07-29T13:33:42;1.77;;;1.63;;
12052;SDS011;6087;48.982;12.064;2023-07-29T13:36:09;2.00;;;1.58;;
12052;SDS011;6087;48.982;12.064;2023-07-29T13:38:36;1.73;;;1.50;;
12052;SDS011;6087;48.982;12.064;2023-07-29T13:41:03;1.10;;;1.00;;
12052;SDS011;6087;48.982;12.064;2023-07-29T13:43:32;1.48;;;1.30;;
12052;SDS011;6087;48.982;12.064;2023-07-29T13:45:59;1.58;;;1.48;;
12052;SDS011;6087;48.982;12.064;2023-07-29T13:48:26;1.63;;;1.45;;
12052;SDS011;6087;48.982;12.064;2023-07-29T13:50:53;1.33;;;1.20;;
12052;SDS011;6087;48.982;12.064;2023-07-29T13:53:20;2.60;;;1.60;;
12052;SDS011;6087;48.982;12.064;2023-07-29T13:55:47;2.10;;;1.42;;
12052;SDS011;6087;48.982;12.064;2023-07-29T13:58:14;1.58;;;1.48;;
12052;SDS011;6087;48.982;12.064;2023-07-29T14:00:42;1.60;;;1.50;;
12052;SDS011;6087;48.982;12.064;2023-07-29T14:03:09;1.75;;;1.40;;
12052;SDS011;6087;48.982;12.064;2023-07-29T14:05:36;1.50;;;1.40;;
12052;SDS011;6087;48.982;12.064;2023-07-29T14:08:04;2.15;;;1.33;;
12052;SDS011;6087;48.982;12.064;2023-07-29T14:10:31;1.73;;;1.38;;
12052;SDS011;6087;48.982;12.064;2023-07-29T14:12:58;1.50;;;1.40;;
12052;SDS011;6087;48.982;12.064;2023-07-29T14:15:25;2.10;;;1.40;;
12052;SDS011;6087;48.982;12.064;2023-07-29T14:17:54;3.00;;;1.45;;
12052;SDS011;6087;48.982;12.064;2023-07-29T14:20:22;1.50;;;1.40;;
12052;SDS011;6087;48.982;12.064;2023-07-29T14:22:49;1.48;;;1.10;;
12052;SDS011;6087;48.982;12.064;2023-07-29T14:25:16;1.10;;;1.00;;
12052;SDS011;6087;48.982;12.064;2023-07-29T14:27:43;1.20;;;1.10;;
12052;SDS011;6087;48.982;12.064;2023-07-29T14:30:13;1.45;;;1.38;;
12052;SDS011;6087;48.982;12.064;2023-07-29T14:32:40;1.08;;;0.93;;
12052;SDS011;6087;48.982;12.064;2023-07-29T14:35:12;1.38;;;1.08;;
12052;SDS011;6087;48.982;12.064;2023-07-29T14:37:39;2.20;;;1.27;;
12052;SDS011;6087;48.982;12.064;2023-07-29T14:40:06;1.05;;;1.05;;
12052;SDS011;6087;48.982;12.064;2023-07-29T14:42:34;0.98;;;0.98;;
12052;SDS011;6087;48.982;12.064;2023-07-29T14:45:01;1.05;;;0.88;;
12052;SDS011;6087;48.982;12.064;2023-07-29T14:47:28;1.42;;;1.05;;
12052;SDS011;6087;48.982;12.064;2023-07-29T14:49:59;1.00;;;1.00;;
12052;SDS011;6087;48.982;12.064;2023-07-29T14:52:28;1.00;;;1.00;;